Time;durP1;ratioP1;P1;durP2;ratioP2;P2;SDS_P1;SDS_P2;PMS_P1;PMS_P2;Temp;Humidity;BMP_temperature;BMP_pressure;BME280_temperature;BME280_humidity;BME280_pressure;Samples;Min_cycle;Max_cycle;Signal;HPM_P1;HPM_P2
2023/09/08 00:01:51;;;;;;;4.60;4.30;;;27.00;56.00;27.60;100985.00;;;;5012063;28;20187;-48
2023/09/08 00:04:17;;;;;;;4.82;4.43;;;27.00;55.70;27.60;100977.00;;;;5027595;28;20175;-48
2023/09/08 00:06:42;;;;;;;4.97;4.57;;;27.00;55.90;27.60;100977.00;;;;5012495;28;20598;-46
2023/09/08 00:09:08;;;;;;;4.55;4.15;;;27.00;55.70;27.60;100978.00;;;;5009017;28;20223;-47
2023/09/08 00:11:34;;;;;;;4.78;4.18;;;26.90;55.80;27.60;100984.00;;;;5007462;28;20194;-48
2023/09/08 00:13:59;;;;;;;4.82;4.40;;;27.00;55.90;27.50;100971.00;;;;5011459;28;20225;-48
2023/09/08 00:16:25;;;;;;;4.72;4.28;;;26.90;55.90;27.50;100972.00;;;;5009042;28;20250;-47
2023/09/08 00:18:51;;;;;;;5.05;4.65;;;26.90;56.00;27.50;100968.00;;;;5008654;28;20317;-47
2023/09/08 00:21:17;;;;;;;5.07;4.22;;;26.90;56.10;27.50;100972.00;;;;4991120;28;20211;-47
2023/09/08 00:23:43;;;;;;;4.65;4.25;;;26.90;56.10;27.40;100959.00;;;;4974589;28;20178;-47
2023/09/08 00:26:09;;;;;;;4.32;4.03;;;26.80;56.20;27.40;100966.00;;;;5008134;28;20211;-47
2023/09/08 00:28:35;;;;;;;4.88;4.47;;;26.80;55.80;27.30;100961.00;;;;5006611;28;20609;-47
2023/09/08 00:31:01;;;;;;;4.70;4.30;;;26.80;55.90;27.30;100960.00;;;;5007105;28;20740;-47
2023/09/08 00:33:26;;;;;;;4.97;4.57;;;26.70;55.80;27.30;100960.00;;;;5008177;28;20194;-47
2023/09/08 00:35:53;;;;;;;4.40;4.00;;;26.60;55.80;27.20;100968.00;;;;4990683;28;20214;-46
2023/09/08 00:38:19;;;;;;;4.72;4.32;;;26.60;55.90;27.20;100968.00;;;;5007738;28;20283;-47
2023/09/08 00:40:45;;;;;;;4.90;4.50;;;26.60;56.00;27.20;100952.00;;;;5006597;28;20175;-47
2023/09/08 00:43:11;;;;;;;4.82;4.40;;;26.70;56.20;27.20;100966.00;;;;5008212;28;20364;-47
2023/09/08 00:45:40;;;;;;;4.47;4.10;;;26.70;55.90;27.20;100965.00;;;;4990480;28;20285;-47
2023/09/08 00:48:06;;;;;;;4.57;4.18;;;26.60;55.80;27.10;100966.00;;;;5006460;28;20666;-47
2023/09/08 00:50:32;;;;;;;4.43;4.00;;;26.60;55.80;27.10;100948.00;;;;5006892;28;20658;-47
2023/09/08 00:52:58;;;;;;;5.35;4.03;;;26.60;56.00;27.10;100963.00;;;;5008248;28;20780;-46
2023/09/08 00:55:24;;;;;;;4.85;4.45;;;26.50;55.70;27.00;100963.00;;;;5006669;28;20168;-47
2023/09/08 00:57:50;;;;;;;4.38;4.07;;;26.50;55.90;27.00;100960.00;;;;4974181;28;20196;-47
2023/09/08 01:00:16;;;;;;;4.75;4.35;;;26.50;56.00;27.00;100957.00;;;;5006524;28;20229;-46
2023/09/08 01:02:43;;;;;;;5.22;4.13;;;26.50;55.90;26.90;100959.00;;;;5011909;28;20180;-47
2023/09/08 01:05:09;;;;;;;4.50;4.10;;;26.50;55.90;26.90;100957.00;;;;5012063;28;20218;-47
2023/09/08 01:07:35;;;;;;;5.00;4.35;;;26.40;56.00;26.90;100948.00;;;;5010051;28;20638;-47
2023/09/08 01:10:03;;;;;;;4.28;3.97;;;26.40;55.90;26.90;100954.00;;;;5011706;28;20207;-47
2023/09/08 01:12:29;;;;;;;4.90;4.50;;;26.40;56.20;26.80;100956.00;;;;5011784;28;20199;-47
2023/09/08 01:14:55;;;;;;;4.78;4.30;;;26.30;56.20;26.80;100956.00;;;;5014397;28;20176;-46
2023/09/08 01:17:21;;;;;;;4.70;4.15;;;26.30;56.20;26.80;100959.00;;;;5010024;28;20215;-47
2023/09/08 01:19:47;;;;;;;4.95;4.47;;;26.30;56.80;26.70;100957.00;;;;5011619;28;20677;-46
2023/09/08 01:22:45;;;;;;;4.40;4.00;;;26.30;56.20;26.70;100960.00;;;;4994145;28;20194;-47
2023/09/08 01:25:21;;;;;;;4.50;4.10;;;26.30;56.20;26.70;100968.00;;;;4980439;28;20171;-47
2023/09/08 01:27:52;;;;;;;4.55;4.15;;;26.20;56.20;26.70;100958.00;;;;5011246;28;20271;-47
2023/09/08 01:30:18;;;;;;;5.30;4.30;;;26.20;56.60;26.60;100965.00;;;;4978088;28;20180;-47
2023/09/08 01:32:44;;;;;;;5.20;4.63;;;26.20;56.40;26.60;100971.00;;;;5011052;28;20183;-46
2023/09/08 01:35:10;;;;;;;4.45;4.15;;;26.20;56.40;26.60;100969.00;;;;4993656;28;20211;-47
2023/09/08 01:37:36;;;;;;;4.47;4.00;;;26.20;56.30;26.60;100968.00;;;;4993127;28;20548;-47
2023/09/08 01:40:01;;;;;;;4.30;4.00;;;26.10;56.30;26.60;100962.00;;;;5010745;28;20282;-47
2023/09/08 01:42:27;;;;;;;5.25;4.43;;;26.10;56.50;26.50;100955.00;;;;5010853;28;20179;-48
2023/09/08 01:44:53;;;;;;;4.30;4.00;;;26.10;56.30;26.50;100948.00;;;;4993313;28;20171;-47
2023/09/08 01:47:19;;;;;;;4.55;4.10;;;26.10;56.20;26.50;100958.00;;;;5010536;28;20307;-47
2023/09/08 01:49:44;;;;;;;4.85;4.45;;;26.10;56.30;26.50;100947.00;;;;5010834;28;20242;-47
2023/09/08 01:52:10;;;;;;;4.78;4.38;;;26.00;56.40;26.40;100942.00;;;;4970354;28;20187;-47
2023/09/08 01:54:36;;;;;;;4.50;4.10;;;25.90;56.20;26.40;100938.00;;;;5025511;28;20183;-47
2023/09/08 01:57:02;;;;;;;4.47;4.13;;;25.90;56.60;26.30;100942.00;;;;5010978;28;20258;-46
2023/09/08 01:59:28;;;;;;;4.70;4.30;;;25.80;56.60;26.20;100945.00;;;;5012553;28;20192;-48
2023/09/08 02:01:53;;;;;;;5.45;4.40;;;25.80;56.90;26.20;100950.00;;;;5011990;28;20555;-48
2023/09/08 02:04:19;;;;;;;4.82;4.35;;;25.80;56.90;26.20;100945.00;;;;5012899;28;20641;-49
2023/09/08 02:06:45;;;;;;;4.53;4.13;;;25.80;56.80;26.20;100933.00;;;;5018920;28;20195;-49
2023/09/08 02:09:15;;;;;;;4.57;4.18;;;25.70;56.70;26.10;100937.00;;;;5024705;28;20204;-49
2023/09/08 02:11:42;;;;;;;4.88;4.43;;;25.70;56.70;26.10;100929.00;;;;5010551;28;20176;-49
2023/09/08 02:14:07;;;;;;;4.75;4.35;;;25.70;56.90;26.10;100943.00;;;;5011858;28;20584;-49
2023/09/08 02:16:33;;;;;;;4.72;4.32;;;25.70;56.90;26.10;100935.00;;;;5009929;28;20326;-49
2023/09/08 02:18:59;;;;;;;4.55;4.15;;;25.60;56.80;25.90;100934.00;;;;5010052;28;20207;-49
2023/09/08 02:21:24;;;;;;;4.65;4.25;;;25.60;56.90;26.00;100936.00;;;;5010280;28;20184;-50
2023/09/08 02:23:50;;;;;;;4.93;4.40;;;25.60;56.80;26.00;100920.00;;;;5010120;28;20186;-49
2023/09/08 02:26:16;;;;;;;4.80;4.30;;;25.50;56.90;25.90;100926.00;;;;5010026;28;20179;-47
2023/09/08 02:28:42;;;;;;;4.78;4.35;;;25.50;56.80;25.90;100865.00;;;;5010450;28;20235;-47
2023/09/08 02:31:07;;;;;;;4.57;4.28;;;25.50;57.20;25.90;100924.00;;;;5009864;28;20609;-46
2023/09/08 02:33:33;;;;;;;4.40;4.10;;;25.50;56.90;25.90;100933.00;;;;5010100;28;20198;-46
2023/09/08 02:36:04;;;;;;;4.65;4.20;;;25.50;57.10;25.90;100931.00;;;;5008864;28;20699;-47
2023/09/08 02:38:30;;;;;;;4.70;4.30;;;25.50;56.90;25.80;100920.00;;;;5008344;28;20231;-48
2023/09/08 02:40:56;;;;;;;5.13;4.55;;;25.50;57.10;25.80;100921.00;;;;5008660;28;20203;-47
2023/09/08 02:43:22;;;;;;;4.38;3.97;;;25.40;57.10;25.80;100921.00;;;;5009988;28;20179;-47
2023/09/08 02:45:48;;;;;;;4.70;4.40;;;25.30;57.00;25.70;100926.00;;;;5008619;28;20733;-46
2023/09/08 02:48:14;;;;;;;4.68;4.28;;;25.30;57.40;25.70;100925.00;;;;5009766;28;20195;-48
2023/09/08 02:50:39;;;;;;;4.40;4.07;;;25.30;57.40;25.70;100925.00;;;;4992638;28;20609;-47
2023/09/08 02:53:05;;;;;;;4.82;4.30;;;25.20;57.30;25.70;100939.00;;;;5009809;28;20539;-46
2023/09/08 02:55:31;;;;;;;4.65;4.35;;;25.30;57.50;25.60;100930.00;;;;5008422;28;20262;-47
2023/09/08 02:57:57;;;;;;;4.78;4.38;;;25.20;57.20;25.60;100932.00;;;;5009492;28;20640;-47
2023/09/08 03:00:22;;;;;;;4.82;4.43;;;25.30;57.20;25.60;100936.00;;;;5009423;28;20199;-46
2023/09/08 03:02:48;;;;;;;5.60;4.32;;;25.30;57.10;25.60;100933.00;;;;5010040;28;20257;-47
2023/09/08 03:05:14;;;;;;;4.47;4.07;;;25.30;57.20;25.60;100934.00;;;;5011018;28;20666;-48
2023/09/08 03:07:39;;;;;;;4.90;4.47;;;25.30;57.20;25.60;100937.00;;;;5010608;28;20203;-48
2023/09/08 03:10:06;;;;;;;4.63;4.22;;;25.30;57.20;25.60;100941.00;;;;5011209;28;20183;-47
2023/09/08 03:12:32;;;;;;;4.50;4.13;;;25.40;57.30;25.60;100947.00;;;;5010930;28;20691;-47
2023/09/08 03:14:57;;;;;;;5.10;4.70;;;25.30;57.20;25.60;100950.00;;;;5013271;28;20175;-47
2023/09/08 03:17:23;;;;;;;4.40;4.00;;;25.20;57.30;25.60;100949.00;;;;5010096;28;20199;-47
2023/09/08 03:19:49;;;;;;;4.72;4.32;;;25.20;57.40;25.50;100942.00;;;;5010498;28;20203;-48
2023/09/08 03:22:15;;;;;;;5.50;4.88;;;25.10;57.40;25.50;100936.00;;;;5010485;28;20187;-47
2023/09/08 03:24:40;;;;;;;4.88;3.88;;;25.20;57.50;25.50;100936.00;;;;5009858;28;20628;-46
2023/09/08 03:27:06;;;;;;;5.38;4.47;;;25.10;57.40;25.50;100931.00;;;;5009969;28;20187;-47
2023/09/08 03:29:32;;;;;;;5.07;4.38;;;25.10;57.70;25.50;100920.00;;;;5008935;28;20185;-47
2023/09/08 03:31:58;;;;;;;4.50;4.15;;;25.10;57.60;25.50;100919.00;;;;5010166;28;20180;-46
2023/09/08 03:34:23;;;;;;;5.10;4.70;;;25.10;57.70;25.50;100925.00;;;;5010028;28;20187;-47
2023/09/08 03:36:50;;;;;;;5.72;4.57;;;25.10;57.70;25.50;100918.00;;;;5009790;28;20180;-46
2023/09/08 03:39:15;;;;;;;4.97;4.45;;;25.20;57.60;25.50;100922.00;;;;5008569;28;20249;-46
2023/09/08 03:41:41;;;;;;;4.90;4.50;;;25.10;57.50;25.40;100912.00;;;;5010041;28;20614;-47
2023/09/08 03:44:07;;;;;;;5.43;4.95;;;25.10;57.50;25.40;100921.00;;;;5010007;28;20206;-47
2023/09/08 03:46:32;;;;;;;5.57;5.18;;;25.10;57.60;25.40;100921.00;;;;5009888;28;20187;-46
2023/09/08 03:49:00;;;;;;;5.20;4.80;;;25.10;57.60;25.40;100920.00;;;;5008998;28;20254;-46
2023/09/08 03:51:27;;;;;;;5.15;4.68;;;25.10;57.80;25.40;100921.00;;;;5010253;28;20180;-46
2023/09/08 03:53:53;;;;;;;5.10;4.70;;;25.00;57.70;25.30;100922.00;;;;5020599;28;20187;-46
2023/09/08 03:56:20;;;;;;;4.55;4.20;;;25.00;57.70;25.30;100925.00;;;;5021353;28;20191;-47
2023/09/08 03:58:46;;;;;;;6.70;4.85;;;25.00;57.80;25.20;100884.00;;;;5011018;28;20708;-47
2023/09/08 04:01:12;;;;;;;4.82;4.43;;;25.00;57.70;25.20;100936.00;;;;5011331;28;20312;-46
2023/09/08 04:03:37;;;;;;;4.72;4.32;;;25.00;57.90;25.20;100928.00;;;;5010283;28;20213;-46
2023/09/08 04:06:03;;;;;;;4.97;4.47;;;25.00;57.80;25.20;100910.00;;;;5011122;28;20242;-45
2023/09/08 04:08:29;;;;;;;4.80;4.40;;;24.90;57.70;25.20;100922.00;;;;5022784;28;20258;-47
2023/09/08 04:10:55;;;;;;;4.75;4.35;;;25.00;57.80;25.20;100927.00;;;;5018631;28;20175;-45
2023/09/08 04:13:20;;;;;;;4.85;4.45;;;25.00;57.80;25.20;100920.00;;;;5010277;28;20176;-45
2023/09/08 04:15:46;;;;;;;5.10;4.60;;;24.90;57.80;25.20;100926.00;;;;5009851;28;20190;-45
2023/09/08 04:18:12;;;;;;;4.70;4.30;;;24.90;57.80;25.10;100920.00;;;;5009267;28;20573;-46
2023/09/08 04:20:37;;;;;;;5.28;4.50;;;24.90;58.00;25.10;100921.00;;;;5009887;28;20215;-46
2023/09/08 04:23:03;;;;;;;4.45;4.15;;;24.90;58.00;25.10;100933.00;;;;5009788;28;20175;-47
2023/09/08 04:25:29;;;;;;;5.00;4.60;;;24.80;58.00;25.10;100914.00;;;;5009141;28;20205;-47
2023/09/08 04:27:55;;;;;;;4.88;4.35;;;24.80;57.80;25.00;100920.00;;;;5004251;28;20246;-49
2023/09/08 04:30:21;;;;;;;5.00;4.50;;;24.80;58.00;25.00;100899.00;;;;5008592;28;20203;-49
2023/09/08 04:32:47;;;;;;;4.70;4.30;;;24.70;58.00;25.00;100915.00;;;;5008199;28;20176;-49
2023/09/08 04:35:12;;;;;;;4.82;4.40;;;24.70;58.00;25.00;100922.00;;;;5009015;28;20266;-49
2023/09/08 04:37:39;;;;;;;4.63;4.22;;;24.70;58.10;24.90;100914.00;;;;5012868;28;20238;-49
2023/09/08 04:40:05;;;;;;;7.38;6.80;;;24.60;58.10;24.90;100926.00;;;;5012642;28;20191;-49
2023/09/08 04:42:31;;;;;;;5.95;5.45;;;24.60;58.10;24.90;100916.00;;;;5012887;28;20187;-50
2023/09/08 04:44:57;;;;;;;11.00;10.00;;;24.60;57.90;24.80;100914.00;;;;5012728;28;20602;-49
2023/09/08 04:47:23;;;;;;;6.80;6.20;;;24.60;58.00;24.80;100914.00;;;;5011091;28;20759;-49
2023/09/08 04:49:48;;;;;;;5.95;5.40;;;24.50;58.20;24.80;100924.00;;;;5011454;28;20307;-49
2023/09/08 04:52:14;;;;;;;5.97;5.18;;;24.50;58.00;24.80;100925.00;;;;5012877;28;20176;-49
2023/09/08 04:54:40;;;;;;;5.43;4.90;;;24.60;58.20;24.80;100930.00;;;;5012850;28;20543;-49
2023/09/08 04:57:06;;;;;;;5.00;4.60;;;24.60;58.20;24.80;100937.00;;;;5011525;28;20183;-49
2023/09/08 04:59:32;;;;;;;4.93;4.22;;;24.50;58.20;24.70;100927.00;;;;5012824;28;20294;-49
2023/09/08 05:01:58;;;;;;;5.00;4.60;;;24.50;58.20;24.70;100925.00;;;;5012706;28;20245;-49
2023/09/08 05:04:24;;;;;;;5.07;4.60;;;24.40;58.20;24.70;100921.00;;;;5012258;28;20187;-49
2023/09/08 05:06:50;;;;;;;5.05;4.60;;;24.40;58.20;24.60;100917.00;;;;5010833;28;20178;-50
2023/09/08 05:09:16;;;;;;;5.00;4.60;;;24.40;58.40;24.60;100917.00;;;;5010774;28;20214;-49
2023/09/08 05:11:41;;;;;;;5.13;4.57;;;24.30;58.20;24.60;100923.00;;;;4994940;28;20186;-49
2023/09/08 05:14:08;;;;;;;4.88;4.47;;;24.30;58.20;24.60;100930.00;;;;5012701;28;20222;-49
2023/09/08 05:16:39;;;;;;;5.10;4.60;;;24.30;58.10;24.50;100920.00;;;;5011726;28;20233;-49
2023/09/08 05:19:05;;;;;;;5.07;4.57;;;24.30;58.40;24.50;100930.00;;;;5010736;28;20256;-49
2023/09/08 05:21:34;;;;;;;5.30;4.80;;;24.20;58.10;24.50;100927.00;;;;5012078;28;20670;-49
2023/09/08 05:23:59;;;;;;;4.82;4.40;;;24.20;58.10;24.50;100928.00;;;;5012164;28;20234;-49
2023/09/08 05:26:25;;;;;;;5.05;4.50;;;24.10;58.30;24.50;100934.00;;;;5009878;28;20179;-50
2023/09/08 05:28:51;;;;;;;5.68;4.60;;;24.10;58.40;24.40;100933.00;;;;5012342;28;20702;-49
2023/09/08 05:31:16;;;;;;;4.97;4.57;;;24.10;58.60;24.40;100936.00;;;;5011986;28;20186;-49
2023/09/08 05:33:42;;;;;;;5.97;4.32;;;24.10;59.10;24.40;100944.00;;;;5010447;28;20186;-49
2023/09/08 05:36:08;;;;;;;6.93;4.30;;;24.20;58.60;24.40;100931.00;;;;5011878;28;20191;-49
2023/09/08 05:38:34;;;;;;;5.10;4.60;;;24.10;58.40;24.40;100934.00;;;;5012208;28;20199;-49
2023/09/08 05:40:59;;;;;;;5.78;4.55;;;24.10;58.50;24.30;100923.00;;;;5012164;28;20253;-49
2023/09/08 05:43:25;;;;;;;4.70;4.30;;;24.00;58.70;24.30;100929.00;;;;5011874;28;20218;-50
2023/09/08 05:45:51;;;;;;;4.93;4.50;;;24.10;58.50;24.30;100921.00;;;;5010521;28;20685;-50
2023/09/08 05:48:17;;;;;;;4.97;4.47;;;24.10;58.60;24.30;100924.00;;;;5010911;28;20200;-50
2023/09/08 05:50:42;;;;;;;5.17;4.53;;;24.00;58.50;24.30;100918.00;;;;5016944;28;20489;-50
2023/09/08 05:53:08;;;;;;;5.03;4.53;;;24.10;58.70;24.20;100924.00;;;;5029144;28;20752;-49
2023/09/08 05:55:34;;;;;;;4.40;4.00;;;24.00;59.20;24.20;100924.00;;;;5017396;28;20628;-49
2023/09/08 05:58:00;;;;;;;5.37;4.83;;;24.00;58.60;24.00;100925.00;;;;5011628;28;20207;-50
2023/09/08 06:00:26;;;;;;;6.73;4.63;;;23.90;58.70;24.20;100934.00;;;;5011531;28;20227;-49
2023/09/08 06:02:51;;;;;;;5.00;4.60;;;23.90;58.80;24.10;100941.00;;;;5011552;28;20227;-51
2023/09/08 06:05:17;;;;;;;4.80;4.40;;;23.90;59.00;24.10;100938.00;;;;5017765;28;20187;-49
2023/09/08 06:07:43;;;;;;;4.80;4.40;;;23.90;58.90;24.10;100938.00;;;;5022987;28;20231;-49
2023/09/08 06:10:09;;;;;;;5.17;4.67;;;23.90;59.10;24.10;100945.00;;;;5015012;28;20387;-49
2023/09/08 06:12:35;;;;;;;5.30;4.80;;;23.80;59.00;24.10;100943.00;;;;5012300;28;20636;-50
2023/09/08 06:15:03;;;;;;;5.17;4.67;;;23.80;59.00;24.10;100944.00;;;;5011941;28;20184;-49
2023/09/08 06:17:28;;;;;;;4.90;4.50;;;23.80;59.10;24.10;100946.00;;;;5009877;28;20242;-49
2023/09/08 06:19:54;;;;;;;5.20;4.70;;;23.90;59.20;24.10;100941.00;;;;5012264;28;20204;-49
2023/09/08 06:22:20;;;;;;;4.87;4.43;;;23.80;59.10;24.10;100939.00;;;;5011137;28;20195;-48
2023/09/08 06:24:46;;;;;;;4.73;4.33;;;23.80;59.50;24.10;100934.00;;;;5010798;28;20180;-49
2023/09/08 06:27:12;;;;;;;5.10;4.57;;;23.80;59.40;24.00;100932.00;;;;5010260;28;20246;-50
2023/09/08 06:29:39;;;;;;;4.70;4.30;;;23.80;59.30;24.00;100946.00;;;;5009649;28;20224;-49
2023/09/08 06:32:06;;;;;;;5.00;4.60;;;23.80;59.30;24.00;100931.00;;;;5010421;28;20195;-49
2023/09/08 06:34:33;;;;;;;4.40;4.00;;;23.80;59.40;24.00;100950.00;;;;5010738;28;20550;-49
2023/09/08 06:36:59;;;;;;;4.80;4.40;;;23.80;59.20;24.00;100942.00;;;;5010595;28;20262;-50
2023/09/08 06:39:25;;;;;;;4.77;4.37;;;23.80;59.20;24.00;100948.00;;;;5010919;28;20671;-49
2023/09/08 06:41:51;;;;;;;4.67;4.30;;;23.80;59.20;24.00;100885.00;;;;5010889;28;20519;-50
2023/09/08 06:44:17;;;;;;;4.80;4.40;;;23.80;59.20;24.00;100945.00;;;;5010535;28;20190;-49
2023/09/08 06:46:42;;;;;;;5.00;4.50;;;23.80;59.30;24.00;100948.00;;;;5010796;28;20658;-50
2023/09/08 06:49:08;;;;;;;4.70;4.30;;;23.80;59.40;24.00;100961.00;;;;5010825;28;20195;-50
2023/09/08 06:51:34;;;;;;;4.83;4.43;;;23.70;59.50;24.00;100956.00;;;;5010693;28;20718;-49
2023/09/08 06:54:00;;;;;;;4.67;4.27;;;23.80;59.80;24.00;100955.00;;;;5010560;28;20258;-49
2023/09/08 06:56:25;;;;;;;4.80;4.40;;;23.70;59.80;24.00;100960.00;;;;5010061;28;20241;-49
2023/09/08 06:58:51;;;;;;;4.63;4.13;;;23.70;59.70;24.00;100957.00;;;;5009063;28;20262;-50
2023/09/08 07:01:17;;;;;;;4.60;4.20;;;23.70;59.70;24.00;100949.00;;;;5010156;28;20544;-50
2023/09/08 07:03:43;;;;;;;5.20;4.70;;;23.70;59.70;24.00;100952.00;;;;5010670;28;20275;-49
2023/09/08 07:06:09;;;;;;;4.60;4.20;;;23.70;60.10;24.00;100957.00;;;;5009655;28;20175;-49
2023/09/08 07:08:34;;;;;;;4.90;4.47;;;23.70;60.10;24.00;100962.00;;;;5008876;28;20200;-50
2023/09/08 07:11:00;;;;;;;5.00;4.60;;;23.70;60.30;24.00;100958.00;;;;5010366;28;20514;-49
2023/09/08 07:13:26;;;;;;;4.83;4.40;;;23.60;60.40;24.00;100946.00;;;;5009736;28;20175;-50
2023/09/08 07:15:51;;;;;;;4.37;4.03;;;23.70;60.50;24.00;100951.00;;;;5007614;28;20186;-49
2023/09/08 07:18:17;;;;;;;4.73;4.33;;;23.70;60.50;24.00;100953.00;;;;5008500;28;20203;-49
2023/09/08 07:20:48;;;;;;;4.90;4.50;;;23.70;60.70;24.00;100956.00;;;;5009094;28;20195;-49
2023/09/08 07:23:14;;;;;;;4.73;4.33;;;23.60;60.50;23.90;100958.00;;;;5008261;28;20278;-50
2023/09/08 07:25:39;;;;;;;7.03;4.47;;;23.70;60.70;23.90;100942.00;;;;5009376;28;20275;-49
2023/09/08 07:28:05;;;;;;;4.80;4.40;;;23.60;60.70;23.90;100947.00;;;;5009656;28;20230;-49
2023/09/08 07:30:34;;;;;;;4.77;4.30;;;23.60;60.90;24.00;100964.00;;;;5009494;28;20263;-50
2023/09/08 07:32:59;;;;;;;4.80;4.40;;;23.50;61.30;24.00;100961.00;;;;5009592;28;20191;-49
2023/09/08 07:35:25;;;;;;;5.17;4.30;;;23.60;61.30;24.00;100960.00;;;;5009912;28;20676;-49
2023/09/08 07:37:51;;;;;;;4.87;4.40;;;23.50;61.40;24.00;100960.00;;;;5009880;28;20283;-53
2023/09/08 07:40:17;;;;;;;4.83;4.43;;;23.50;61.70;24.00;100953.00;;;;5010188;28;20222;-49
2023/09/08 07:42:42;;;;;;;5.07;4.40;;;23.50;61.70;24.00;100964.00;;;;5010422;28;20195;-49
2023/09/08 07:45:09;;;;;;;4.60;4.20;;;23.50;61.80;24.00;100959.00;;;;5009607;28;20179;-50
2023/09/08 07:47:35;;;;;;;4.70;4.23;;;23.60;62.10;24.10;100954.00;;;;5009648;28;20229;-56
2023/09/08 07:50:37;;;;;;;4.43;4.05;;;23.60;62.00;24.10;100962.00;;;;5020123;28;20191;-57
2023/09/08 07:53:03;;;;;;;4.88;4.30;;;23.70;61.90;24.20;100956.00;;;;4977440;28;20191;-56
2023/09/08 07:55:28;;;;;;;5.37;4.30;;;23.70;61.70;24.20;100954.00;;;;4998135;28;20221;-56
2023/09/08 07:57:54;;;;;;;4.47;4.07;;;23.80;61.80;24.20;100956.00;;;;5005246;28;20662;-57
2023/09/08 08:00:20;;;;;;;6.73;4.40;;;23.80;61.80;24.30;100958.00;;;;5008448;28;20585;-56
2023/09/08 08:02:51;;;;;;;4.68;4.25;;;23.80;61.80;24.30;100949.00;;;;5011418;28;20183;-56
2023/09/08 08:05:21;;;;;;;5.67;4.10;;;23.80;61.80;24.30;100959.00;;;;5022375;28;20180;-57
2023/09/08 08:07:49;;;;;;;6.00;4.50;;;23.80;61.80;24.30;100957.00;;;;5017768;28;20216;-56
2023/09/08 08:10:15;;;;;;;6.07;4.37;;;23.90;62.10;24.40;100955.00;;;;5008792;28;20183;-57
2023/09/08 08:12:41;;;;;;;4.87;4.47;;;23.90;62.10;24.40;100955.00;;;;5008111;28;20187;-57
2023/09/08 08:15:11;;;;;;;4.43;4.00;;;23.90;62.10;24.40;100965.00;;;;4991822;28;20187;-57
2023/09/08 08:17:38;;;;;;;4.50;4.10;;;23.90;62.10;24.40;100968.00;;;;4991898;28;20207;-59
2023/09/08 08:20:08;;;;;;;5.05;4.18;;;23.90;62.10;24.40;100963.00;;;;5007919;28;20223;-57
2023/09/08 08:22:35;;;;;;;4.40;4.00;;;24.00;62.40;24.50;100972.00;;;;5009206;28;20179;-58
2023/09/08 08:25:01;;;;;;;4.50;4.10;;;24.00;62.30;24.50;100962.00;;;;5007565;28;20197;-57
2023/09/08 08:27:27;;;;;;;4.83;4.33;;;24.00;62.30;24.50;100955.00;;;;5008594;28;20574;-58
2023/09/08 08:29:53;;;;;;;4.55;4.15;;;24.00;62.40;24.50;100957.00;;;;5008970;28;20182;-58
2023/09/08 08:32:19;;;;;;;4.60;4.10;;;24.10;62.50;24.50;100955.00;;;;5005760;28;20184;-56
2023/09/08 08:34:45;;;;;;;4.50;4.07;;;24.10;62.60;24.50;100961.00;;;;5008649;28;20676;-56
2023/09/08 08:37:11;;;;;;;4.30;3.90;;;24.10;62.60;24.50;100959.00;;;;5008812;28;20210;-57
2023/09/08 08:39:36;;;;;;;4.35;4.05;;;24.10;62.80;24.50;100956.00;;;;5008395;28;20199;-56
2023/09/08 08:42:11;;;;;;;4.28;3.97;;;24.10;62.80;24.60;100953.00;;;;5008461;28;20593;-57
2023/09/08 08:44:40;;;;;;;4.40;4.00;;;24.10;62.70;24.60;100954.00;;;;5008861;28;20669;-57
2023/09/08 08:47:10;;;;;;;4.45;3.90;;;24.10;62.90;24.60;100957.00;;;;5008202;28;20191;-57
2023/09/08 08:49:36;;;;;;;4.53;4.13;;;24.10;62.90;24.60;100959.00;;;;5007333;28;20454;-57
2023/09/08 08:52:06;;;;;;;4.32;3.90;;;24.10;63.30;24.60;100960.00;;;;5008818;28;20408;-57
2023/09/08 08:54:38;;;;;;;4.10;3.80;;;24.10;63.20;24.60;100948.00;;;;5007514;28;20278;-57
2023/09/08 08:57:04;;;;;;;4.15;3.80;;;24.20;63.50;24.60;100955.00;;;;5007219;28;20187;-58
2023/09/08 08:59:30;;;;;;;4.13;3.83;;;24.10;63.40;24.70;100956.00;;;;5008984;28;20257;-57
2023/09/08 09:01:56;;;;;;;4.20;3.80;;;24.20;63.70;24.70;100953.00;;;;5004691;28;20183;-57
2023/09/08 09:04:22;;;;;;;4.43;3.97;;;24.20;63.70;24.70;100935.00;;;;5006728;28;20191;-58
2023/09/08 09:06:47;;;;;;;4.63;3.97;;;24.20;63.90;24.70;100951.00;;;;4972594;28;20180;-57
2023/09/08 09:09:13;;;;;;;4.15;3.85;;;24.20;64.20;24.70;100947.00;;;;4990500;28;20199;-58
2023/09/08 09:11:40;;;;;;;4.25;3.75;;;24.20;64.30;24.50;100947.00;;;;5005747;28;20655;-57
2023/09/08 09:14:06;;;;;;;4.50;4.10;;;24.20;64.40;24.80;100937.00;;;;5004801;28;20247;-57
2023/09/08 09:16:41;;;;;;;4.00;3.70;;;24.20;64.50;24.80;100953.00;;;;5007977;28;20183;-57
2023/09/08 09:19:06;;;;;;;4.22;3.92;;;24.20;65.40;24.80;100951.00;;;;5003845;28;20211;-58
2023/09/08 09:21:48;;;;;;;4.47;4.07;;;24.30;64.70;24.80;100940.00;;;;5006735;28;20233;-57
2023/09/08 09:24:18;;;;;;;4.25;3.85;;;24.30;64.90;24.80;100944.00;;;;5009688;28;20255;-58
2023/09/08 09:26:43;;;;;;;4.35;4.03;;;24.30;65.00;24.80;100925.00;;;;5009212;28;20223;-57
2023/09/08 09:29:15;;;;;;;4.00;3.70;;;24.30;65.10;24.90;100930.00;;;;4992663;28;20298;-58
2023/09/08 09:31:55;;;;;;;4.22;3.83;;;24.30;65.30;24.90;100947.00;;;;5009599;28;20184;-57
2023/09/08 09:34:21;;;;;;;4.35;4.05;;;24.30;65.20;24.90;100948.00;;;;5010988;28;20261;-57
2023/09/08 09:36:49;;;;;;;4.20;3.90;;;24.30;65.60;24.90;100951.00;;;;5010211;28;20188;-57
2023/09/08 09:39:19;;;;;;;4.25;3.95;;;24.30;65.80;24.90;100945.00;;;;5010361;28;20204;-57
2023/09/08 09:41:49;;;;;;;4.30;3.90;;;24.40;66.00;24.90;100937.00;;;;5007810;28;20203;-57
2023/09/08 09:44:18;;;;;;;4.38;3.90;;;24.40;65.90;25.00;100945.00;;;;4993476;28;20191;-57
2023/09/08 09:46:47;;;;;;;6.07;4.00;;;24.40;66.30;24.90;100942.00;;;;5011976;28;20183;-57
2023/09/08 09:49:14;;;;;;;4.20;3.90;;;24.40;67.50;25.00;100938.00;;;;5011760;28;20211;-57
2023/09/08 09:51:43;;;;;;;5.00;4.00;;;24.40;66.80;25.00;100917.00;;;;5010240;28;20187;-57
2023/09/08 09:54:09;;;;;;;4.00;3.70;;;24.40;66.80;25.00;100936.00;;;;5018046;28;20191;-57
2023/09/08 09:56:39;;;;;;;6.25;4.10;;;24.50;67.00;25.00;100931.00;;;;5033872;28;20187;-57
2023/09/08 09:59:09;;;;;;;4.18;3.80;;;24.40;67.20;25.10;100949.00;;;;4991789;28;20230;-57
2023/09/08 10:01:36;;;;;;;5.15;4.00;;;24.50;67.20;25.00;100927.00;;;;4995379;28;20249;-57
2023/09/08 10:04:03;;;;;;;5.22;4.25;;;24.50;67.60;25.10;100940.00;;;;4995837;28;20183;-57
2023/09/08 10:06:31;;;;;;;5.30;4.00;;;24.50;67.50;25.10;100943.00;;;;5010843;28;20238;-56
2023/09/08 10:08:57;;;;;;;4.15;3.80;;;24.60;68.00;25.10;100933.00;;;;5012035;28;20214;-57
2023/09/08 10:11:23;;;;;;;4.30;3.90;;;24.50;67.60;25.10;100934.00;;;;4991389;28;20183;-57
2023/09/08 10:13:50;;;;;;;5.05;3.90;;;24.60;67.60;25.10;100921.00;;;;5008187;28;20187;-57
2023/09/08 10:16:16;;;;;;;4.00;3.70;;;24.60;67.80;25.20;100927.00;;;;5009718;28;20211;-57
2023/09/08 10:18:44;;;;;;;4.38;3.92;;;24.60;68.00;25.20;100935.00;;;;5008419;28;20249;-57
2023/09/08 10:21:10;;;;;;;4.10;3.80;;;24.70;68.10;25.20;100930.00;;;;5010065;28;20199;-57
2023/09/08 10:23:42;;;;;;;4.25;3.83;;;24.70;68.10;25.20;100933.00;;;;4974700;28;20203;-56
2023/09/08 10:26:10;;;;;;;4.63;4.13;;;24.70;68.20;25.20;100925.00;;;;4991215;28;20183;-56
2023/09/08 10:28:37;;;;;;;4.38;3.97;;;24.70;68.40;25.20;100935.00;;;;5010899;28;20323;-57
2023/09/08 10:31:03;;;;;;;4.40;3.70;;;24.70;68.40;25.30;100932.00;;;;5011373;28;20186;-57
2023/09/08 10:33:29;;;;;;;4.70;3.80;;;24.70;68.40;25.30;100912.00;;;;5008741;28;20179;-57
2023/09/08 10:35:55;;;;;;;4.28;3.90;;;24.70;68.20;25.30;100929.00;;;;5009787;28;20179;-57
2023/09/08 10:38:25;;;;;;;4.20;3.90;;;24.80;68.80;25.30;100933.00;;;;5008884;28;20215;-57
2023/09/08 10:40:52;;;;;;;3.85;3.58;;;24.80;68.80;25.30;100924.00;;;;5010879;28;20207;-57
2023/09/08 10:43:18;;;;;;;4.07;3.78;;;24.80;68.80;25.40;100927.00;;;;5010488;28;20172;-56
2023/09/08 10:45:45;;;;;;;4.25;3.85;;;24.80;69.10;25.40;100920.00;;;;5009136;28;20190;-57